sensor_id;sensor_type;location;lat;lon;timestamp;temperature;humidity
70068;DHT22;57425;51.616;6.680;2022-12-11T10:45:04;3.10;78.70
70068;DHT22;57425;51.616;6.680;2022-12-11T10:47:30;3.80;77.20
70068;DHT22;57425;51.616;6.680;2022-12-11T10:50:02;3.70;77.40
70068;DHT22;57425;51.616;6.680;2022-12-11T10:55:04;3.60;77.60
70068;DHT22;57425;51.616;6.680;2022-12-11T10:57:35;3.50;77.60
70068;DHT22;57425;51.616;6.680;2022-12-11T11:00:04;3.50;77.70
70068;DHT22;57425;51.616;6.680;2022-12-11T11:02:35;3.50;77.70
70068;DHT22;57425;51.616;6.680;2022-12-11T11:07:37;3.50;77.70
70068;DHT22;57425;51.616;6.680;2022-12-11T11:10:23;3.40;77.70
70068;DHT22;57425;51.616;6.680;2022-12-11T11:12:49;3.40;77.70
70068;DHT22;57425;51.616;6.680;2022-12-11T11:15:17;3.40;77.80
70068;DHT22;57425;51.616;6.680;2022-12-11T11:17:46;3.40;77.80
70068;DHT22;57425;51.616;6.680;2022-12-11T11:20:16;3.40;77.80
70068;DHT22;57425;51.616;6.680;2022-12-11T11:22:49;3.40;77.80
70068;DHT22;57425;51.616;6.680;2022-12-11T11:25:21;3.40;77.80
70068;DHT22;57425;51.616;6.680;2022-12-11T11:27:51;3.40;77.80
70068;DHT22;57425;51.616;6.680;2022-12-11T11:30:22;3.30;77.80
70068;DHT22;57425;51.616;6.680;2022-12-11T11:32:54;3.40;77.90
70068;DHT22;57425;51.616;6.680;2022-12-11T11:35:25;3.30;77.80
70068;DHT22;57425;51.616;6.680;2022-12-11T11:38:17;3.40;77.90
70068;DHT22;57425;51.616;6.680;2022-12-11T11:43:39;3.30;77.90
70068;DHT22;57425;51.616;6.680;2022-12-11T11:46:20;3.30;77.90
70068;DHT22;57425;51.616;6.680;2022-12-11T11:48:59;3.30;78.00
70068;DHT22;57425;51.616;6.680;2022-12-11T11:54:33;3.30;77.90
70068;DHT22;57425;51.616;6.680;2022-12-11T11:59:54;3.30;78.00
70068;DHT22;57425;51.616;6.680;2022-12-11T12:02:22;3.30;78.00
70068;DHT22;57425;51.616;6.680;2022-12-11T12:04:48;3.30;78.00
70068;DHT22;57425;51.616;6.680;2022-12-11T12:07:39;3.30;78.00
70068;DHT22;57425;51.616;6.680;2022-12-11T12:10:33;3.30;78.00
70068;DHT22;57425;51.616;6.680;2022-12-11T12:13:08;3.40;77.90
70068;DHT22;57425;51.616;6.680;2022-12-11T12:15:55;3.30;78.00
70068;DHT22;57425;51.616;6.680;2022-12-11T12:21:36;3.40;77.90
70068;DHT22;57425;51.616;6.680;2022-12-11T12:26:56;3.30;78.00
70068;DHT22;57425;51.616;6.680;2022-12-11T12:37:46;3.40;78.00
70068;DHT22;57425;51.616;6.680;2022-12-11T12:47:58;3.40;78.00
70068;DHT22;57425;51.616;6.680;2022-12-11T12:50:25;3.40;78.00
70068;DHT22;57425;51.616;6.680;2022-12-11T12:52:54;3.40;78.00
70068;DHT22;57425;51.616;6.680;2022-12-11T12:55:25;3.40;77.90
70068;DHT22;57425;51.616;6.680;2022-12-11T13:03:12;3.40;77.90
70068;DHT22;57425;51.616;6.680;2022-12-11T13:05:41;3.40;77.90
70068;DHT22;57425;51.616;6.680;2022-12-11T13:08:09;3.40;77.90
70068;DHT22;57425;51.616;6.680;2022-12-11T13:10:40;3.40;77.90
70068;DHT22;57425;51.616;6.680;2022-12-11T13:13:35;3.40;77.90
70068;DHT22;57425;51.616;6.680;2022-12-11T13:18:47;3.40;77.90
70068;DHT22;57425;51.616;6.680;2022-12-11T13:21:32;3.50;78.10
70068;DHT22;57425;51.616;6.680;2022-12-11T13:26:46;3.40;77.90
70068;DHT22;57425;51.616;6.680;2022-12-11T13:32:00;3.40;77.90
70068;DHT22;57425;51.616;6.680;2022-12-11T13:34:30;3.40;78.40
70068;DHT22;57425;51.616;6.680;2022-12-11T13:36:57;3.50;78.00
70068;DHT22;57425;51.616;6.680;2022-12-11T13:39:26;3.50;77.90
70068;DHT22;57425;51.616;6.680;2022-12-11T13:41:56;3.40;77.80
70068;DHT22;57425;51.616;6.680;2022-12-11T13:44:27;3.50;77.90
70068;DHT22;57425;51.616;6.680;2022-12-11T13:46:56;3.50;77.80
70068;DHT22;57425;51.616;6.680;2022-12-11T13:49:43;3.50;77.80
70068;DHT22;57425;51.616;6.680;2022-12-11T13:52:19;3.50;77.60
70068;DHT22;57425;51.616;6.680;2022-12-11T13:54:51;3.50;77.70
70068;DHT22;57425;51.616;6.680;2022-12-11T13:57:19;3.50;77.70
70068;DHT22;57425;51.616;6.680;2022-12-11T13:59:54;3.50;77.70
70068;DHT22;57425;51.616;6.680;2022-12-11T14:02:38;3.50;77.70
70068;DHT22;57425;51.616;6.680;2022-12-11T14:05:07;3.50;77.50
70068;DHT22;57425;51.616;6.680;2022-12-11T14:07:37;3.50;77.60
70068;DHT22;57425;51.616;6.680;2022-12-11T14:10:27;3.50;77.50
70068;DHT22;57425;51.616;6.680;2022-12-11T14:13:09;3.50;77.40
70068;DHT22;57425;51.616;6.680;2022-12-11T14:15:37;3.50;77.50
70068;DHT22;57425;51.616;6.680;2022-12-11T14:18:14;3.50;77.70
70068;DHT22;57425;51.616;6.680;2022-12-11T14:20:42;3.50;77.80
70068;DHT22;57425;51.616;6.680;2022-12-11T14:23:18;3.50;77.80
70068;DHT22;57425;51.616;6.680;2022-12-11T14:25:56;3.50;77.70
70068;DHT22;57425;51.616;6.680;2022-12-11T14:28:23;3.50;77.60
70068;DHT22;57425;51.616;6.680;2022-12-11T14:30:56;3.50;77.70
70068;DHT22;57425;51.616;6.680;2022-12-11T14:33:26;3.50;78.20
70068;DHT22;57425;51.616;6.680;2022-12-11T14:35:54;3.50;77.60
70068;DHT22;57425;51.616;6.680;2022-12-11T14:38:26;3.50;77.60
70068;DHT22;57425;51.616;6.680;2022-12-11T14:40:56;3.50;77.60
70068;DHT22;57425;51.616;6.680;2022-12-11T14:43:32;3.50;77.70
70068;DHT22;57425;51.616;6.680;2022-12-11T14:46:03;3.60;77.80
70068;DHT22;57425;51.616;6.680;2022-12-11T14:48:36;3.50;77.70
70068;DHT22;57425;51.616;6.680;2022-12-11T14:51:06;3.50;77.80
70068;DHT22;57425;51.616;6.680;2022-12-11T14:53:44;3.50;77.10
70068;DHT22;57425;51.616;6.680;2022-12-11T14:56:17;3.40;76.80
70068;DHT22;57425;51.616;6.680;2022-12-11T14:59:00;3.30;76.40
70068;DHT22;57425;51.616;6.680;2022-12-11T15:01:30;3.30;76.40
70068;DHT22;57425;51.616;6.680;2022-12-11T15:04:05;3.20;76.30
70068;DHT22;57425;51.616;6.680;2022-12-11T15:06:33;3.30;76.80
70068;DHT22;57425;51.616;6.680;2022-12-11T15:11:52;3.30;76.80
70068;DHT22;57425;51.616;6.680;2022-12-11T15:14:19;3.30;76.90
70068;DHT22;57425;51.616;6.680;2022-12-11T15:16:47;3.30;77.00
70068;DHT22;57425;51.616;6.680;2022-12-11T15:19:27;3.40;77.10
70068;DHT22;57425;51.616;6.680;2022-12-11T15:21:54;3.50;77.00
70068;DHT22;57425;51.616;6.680;2022-12-11T15:24:52;3.50;77.10
70068;DHT22;57425;51.616;6.680;2022-12-11T15:27:27;3.60;77.00
70068;DHT22;57425;51.616;6.680;2022-12-11T15:29:55;3.60;77.10
70068;DHT22;57425;51.616;6.680;2022-12-11T15:32:22;3.60;77.00
70068;DHT22;57425;51.616;6.680;2022-12-11T15:37:29;3.60;76.90
70068;DHT22;57425;51.616;6.680;2022-12-11T15:39:56;3.70;77.00
70068;DHT22;57425;51.616;6.680;2022-12-11T15:44:47;3.70;77.00
70068;DHT22;57425;51.616;6.680;2022-12-11T15:47:14;3.70;77.00
70068;DHT22;57425;51.616;6.680;2022-12-11T15:49:40;3.70;76.90
70068;DHT22;57425;51.616;6.680;2022-12-11T15:52:06;3.70;76.90
70068;DHT22;57425;51.616;6.680;2022-12-11T15:54:34;3.70;76.90
70068;DHT22;57425;51.616;6.680;2022-12-11T15:57:03;3.70;76.90
70068;DHT22;57425;51.616;6.680;2022-12-11T15:59:30;3.70;76.90
70068;DHT22;57425;51.616;6.680;2022-12-11T16:01:58;3.70;76.90
70068;DHT22;57425;51.616;6.680;2022-12-11T16:04:23;3.70;76.90
70068;DHT22;57425;51.616;6.680;2022-12-11T16:06:50;3.70;76.90
70068;DHT22;57425;51.616;6.680;2022-12-11T16:09:15;3.70;76.90
70068;DHT22;57425;51.616;6.680;2022-12-11T16:11:42;3.80;76.90
70068;DHT22;57425;51.616;6.680;2022-12-11T16:14:08;3.70;76.90
70068;DHT22;57425;51.616;6.680;2022-12-11T16:16:33;3.70;76.90
70068;DHT22;57425;51.616;6.680;2022-12-11T16:18:59;3.70;76.90
70068;DHT22;57425;51.616;6.680;2022-12-11T16:21:25;3.80;76.90
70068;DHT22;57425;51.616;6.680;2022-12-11T16:23:51;3.80;77.00
70068;DHT22;57425;51.616;6.680;2022-12-11T16:26:16;3.70;76.90
70068;DHT22;57425;51.616;6.680;2022-12-11T16:28:42;3.80;77.00
70068;DHT22;57425;51.616;6.680;2022-12-11T16:31:12;3.80;77.00
70068;DHT22;57425;51.616;6.680;2022-12-11T16:33:38;3.70;76.90
70068;DHT22;57425;51.616;6.680;2022-12-11T16:36:15;3.70;77.00
70068;DHT22;57425;51.616;6.680;2022-12-11T16:38:44;3.70;76.80
70068;DHT22;57425;51.616;6.680;2022-12-11T16:41:10;3.80;76.90
70068;DHT22;57425;51.616;6.680;2022-12-11T16:43:36;3.70;76.80
70068;DHT22;57425;51.616;6.680;2022-12-11T16:46:01;3.70;76.90
70068;DHT22;57425;51.616;6.680;2022-12-11T16:48:27;3.70;76.90
70068;DHT22;57425;51.616;6.680;2022-12-11T16:50:54;3.70;76.90
70068;DHT22;57425;51.616;6.680;2022-12-11T16:53:20;3.70;76.80
70068;DHT22;57425;51.616;6.680;2022-12-11T16:55:46;3.70;76.80
70068;DHT22;57425;51.616;6.680;2022-12-11T16:58:12;3.70;76.80
70068;DHT22;57425;51.616;6.680;2022-12-11T17:00:45;3.70;76.80
70068;DHT22;57425;51.616;6.680;2022-12-11T17:03:11;3.70;76.80
70068;DHT22;57425;51.616;6.680;2022-12-11T17:05:42;3.70;77.30
70068;DHT22;57425;51.616;6.680;2022-12-11T17:08:08;3.70;76.70
70068;DHT22;57425;51.616;6.680;2022-12-11T17:10:38;3.70;76.70
70068;DHT22;57425;51.616;6.680;2022-12-11T17:13:05;3.70;76.70
70068;DHT22;57425;51.616;6.680;2022-12-11T17:15:30;3.70;76.70
70068;DHT22;57425;51.616;6.680;2022-12-11T17:17:56;3.70;76.70
70068;DHT22;57425;51.616;6.680;2022-12-11T17:20:21;3.70;76.70
70068;DHT22;57425;51.616;6.680;2022-12-11T17:22:47;3.70;76.70
70068;DHT22;57425;51.616;6.680;2022-12-11T17:25:13;3.70;76.60
70068;DHT22;57425;51.616;6.680;2022-12-11T17:27:43;3.70;76.70
70068;DHT22;57425;51.616;6.680;2022-12-11T17:30:09;3.70;76.70
70068;DHT22;57425;51.616;6.680;2022-12-11T17:32:35;3.70;76.70
70068;DHT22;57425;51.616;6.680;2022-12-11T17:35:01;3.70;76.70
70068;DHT22;57425;51.616;6.680;2022-12-11T17:37:26;3.70;76.70
70068;DHT22;57425;51.616;6.680;2022-12-11T17:39:52;3.70;76.70
70068;DHT22;57425;51.616;6.680;2022-12-11T17:42:18;3.70;76.70
70068;DHT22;57425;51.616;6.680;2022-12-11T17:44:43;3.70;76.60
70068;DHT22;57425;51.616;6.680;2022-12-11T17:47:10;3.70;76.60
70068;DHT22;57425;51.616;6.680;2022-12-11T17:49:37;3.70;76.60
70068;DHT22;57425;51.616;6.680;2022-12-11T17:52:03;3.70;76.60
70068;DHT22;57425;51.616;6.680;2022-12-11T17:54:28;3.70;76.60
70068;DHT22;57425;51.616;6.680;2022-12-11T17:56:54;3.70;76.60
70068;DHT22;57425;51.616;6.680;2022-12-11T17:59:19;3.70;76.60
70068;DHT22;57425;51.616;6.680;2022-12-11T18:01:45;3.70;76.60
70068;DHT22;57425;51.616;6.680;2022-12-11T18:04:10;3.70;76.60
70068;DHT22;57425;51.616;6.680;2022-12-11T18:06:36;3.70;76.60
70068;DHT22;57425;51.616;6.680;2022-12-11T18:09:02;3.70;76.60
70068;DHT22;57425;51.616;6.680;2022-12-11T18:11:28;3.60;76.50
70068;DHT22;57425;51.616;6.680;2022-12-11T18:13:53;3.70;76.60
70068;DHT22;57425;51.616;6.680;2022-12-11T18:16:23;3.60;76.50
70068;DHT22;57425;51.616;6.680;2022-12-11T18:18:49;3.70;76.50
70068;DHT22;57425;51.616;6.680;2022-12-11T18:21:18;3.70;77.10
70068;DHT22;57425;51.616;6.680;2022-12-11T18:23:44;3.70;76.60
70068;DHT22;57425;51.616;6.680;2022-12-11T18:26:10;3.70;76.60
70068;DHT22;57425;51.616;6.680;2022-12-11T18:28:39;3.70;76.60
70068;DHT22;57425;51.616;6.680;2022-12-11T18:31:05;3.60;76.60
70068;DHT22;57425;51.616;6.680;2022-12-11T18:33:34;3.60;76.50
70068;DHT22;57425;51.616;6.680;2022-12-11T18:36:00;3.70;76.60
70068;DHT22;57425;51.616;6.680;2022-12-11T18:38:26;3.60;76.60
70068;DHT22;57425;51.616;6.680;2022-12-11T18:40:52;3.60;76.60
70068;DHT22;57425;51.616;6.680;2022-12-11T18:43:17;3.70;76.60
70068;DHT22;57425;51.616;6.680;2022-12-11T18:45:43;3.60;76.60
70068;DHT22;57425;51.616;6.680;2022-12-11T18:48:10;3.60;76.60
70068;DHT22;57425;51.616;6.680;2022-12-11T18:50:36;3.60;76.60
70068;DHT22;57425;51.616;6.680;2022-12-11T18:53:02;3.60;76.60
70068;DHT22;57425;51.616;6.680;2022-12-11T18:55:28;3.60;76.60
70068;DHT22;57425;51.616;6.680;2022-12-11T18:57:55;3.70;76.70
70068;DHT22;57425;51.616;6.680;2022-12-11T19:00:20;3.60;76.60
70068;DHT22;57425;51.616;6.680;2022-12-11T19:02:49;3.60;76.60
70068;DHT22;57425;51.616;6.680;2022-12-11T19:05:17;3.60;76.60
70068;DHT22;57425;51.616;6.680;2022-12-11T19:07:43;3.60;76.60
70068;DHT22;57425;51.616;6.680;2022-12-11T19:10:08;3.60;76.60
70068;DHT22;57425;51.616;6.680;2022-12-11T19:12:35;3.60;76.60
70068;DHT22;57425;51.616;6.680;2022-12-11T19:15:00;3.60;76.60
70068;DHT22;57425;51.616;6.680;2022-12-11T19:17:26;3.60;76.60
70068;DHT22;57425;51.616;6.680;2022-12-11T19:19:52;3.60;76.70
70068;DHT22;57425;51.616;6.680;2022-12-11T19:22:18;3.60;76.70
70068;DHT22;57425;51.616;6.680;2022-12-11T19:24:43;3.60;76.70
70068;DHT22;57425;51.616;6.680;2022-12-11T19:27:09;3.60;76.70
70068;DHT22;57425;51.616;6.680;2022-12-11T19:29:35;3.60;76.70
70068;DHT22;57425;51.616;6.680;2022-12-11T19:32:02;3.60;76.70
70068;DHT22;57425;51.616;6.680;2022-12-11T19:34:28;3.60;76.70
70068;DHT22;57425;51.616;6.680;2022-12-11T19:36:55;3.60;76.70
70068;DHT22;57425;51.616;6.680;2022-12-11T19:39:21;3.60;76.70
70068;DHT22;57425;51.616;6.680;2022-12-11T19:41:48;3.60;76.70
70068;DHT22;57425;51.616;6.680;2022-12-11T19:44:13;3.60;76.70
70068;DHT22;57425;51.616;6.680;2022-12-11T19:46:39;3.60;76.70
70068;DHT22;57425;51.616;6.680;2022-12-11T19:49:05;3.60;76.70
70068;DHT22;57425;51.616;6.680;2022-12-11T19:51:36;3.60;76.80
70068;DHT22;57425;51.616;6.680;2022-12-11T19:54:07;3.60;76.80
70068;DHT22;57425;51.616;6.680;2022-12-11T19:56:34;3.60;76.80
70068;DHT22;57425;51.616;6.680;2022-12-11T19:59:05;3.60;76.70
70068;DHT22;57425;51.616;6.680;2022-12-11T20:01:32;3.60;76.80
70068;DHT22;57425;51.616;6.680;2022-12-11T20:04:05;3.60;76.70
70068;DHT22;57425;51.616;6.680;2022-12-11T20:06:33;3.60;76.70
70068;DHT22;57425;51.616;6.680;2022-12-11T20:08:59;3.60;76.70
70068;DHT22;57425;51.616;6.680;2022-12-11T20:11:25;3.60;76.80
70068;DHT22;57425;51.616;6.680;2022-12-11T20:13:51;3.60;76.70
70068;DHT22;57425;51.616;6.680;2022-12-11T20:16:20;3.60;76.70
70068;DHT22;57425;51.616;6.680;2022-12-11T20:18:46;3.60;76.70
70068;DHT22;57425;51.616;6.680;2022-12-11T20:21:14;3.60;76.60
70068;DHT22;57425;51.616;6.680;2022-12-11T20:23:40;3.60;76.60
70068;DHT22;57425;51.616;6.680;2022-12-11T20:26:15;3.60;76.60
70068;DHT22;57425;51.616;6.680;2022-12-11T20:28:41;3.60;76.60
70068;DHT22;57425;51.616;6.680;2022-12-11T20:31:11;3.60;76.60
70068;DHT22;57425;51.616;6.680;2022-12-11T20:33:37;3.60;76.50
70068;DHT22;57425;51.616;6.680;2022-12-11T20:36:14;3.50;76.50
70068;DHT22;57425;51.616;6.680;2022-12-11T20:38:40;3.50;76.40
70068;DHT22;57425;51.616;6.680;2022-12-11T20:41:12;3.60;77.10
70068;DHT22;57425;51.616;6.680;2022-12-11T20:43:38;3.50;76.50
70068;DHT22;57425;51.616;6.680;2022-12-11T20:46:05;3.50;76.50
70068;DHT22;57425;51.616;6.680;2022-12-11T20:48:31;3.50;76.50
70068;DHT22;57425;51.616;6.680;2022-12-11T20:51:02;3.60;76.60
70068;DHT22;57425;51.616;6.680;2022-12-11T20:53:28;3.50;76.50
70068;DHT22;57425;51.616;6.680;2022-12-11T20:55:55;3.50;76.60
70068;DHT22;57425;51.616;6.680;2022-12-11T20:58:21;3.50;76.50
70068;DHT22;57425;51.616;6.680;2022-12-11T21:00:47;3.50;76.50
70068;DHT22;57425;51.616;6.680;2022-12-11T21:03:14;3.60;77.10
70068;DHT22;57425;51.616;6.680;2022-12-11T21:05:43;3.50;76.50
70068;DHT22;57425;51.616;6.680;2022-12-11T21:08:11;3.50;76.50
70068;DHT22;57425;51.616;6.680;2022-12-11T21:10:40;3.50;76.40
70068;DHT22;57425;51.616;6.680;2022-12-11T21:13:06;3.50;76.40
70068;DHT22;57425;51.616;6.680;2022-12-11T21:15:35;3.50;76.40
70068;DHT22;57425;51.616;6.680;2022-12-11T21:18:00;3.50;76.30
70068;DHT22;57425;51.616;6.680;2022-12-11T21:20:26;3.50;76.30
70068;DHT22;57425;51.616;6.680;2022-12-11T21:22:51;3.50;76.30
70068;DHT22;57425;51.616;6.680;2022-12-11T21:25:18;3.50;76.30
70068;DHT22;57425;51.616;6.680;2022-12-11T21:27:43;3.50;76.40
70068;DHT22;57425;51.616;6.680;2022-12-11T21:30:09;3.50;76.40
70068;DHT22;57425;51.616;6.680;2022-12-11T21:32:36;3.50;76.40
70068;DHT22;57425;51.616;6.680;2022-12-11T21:35:03;3.50;76.40
70068;DHT22;57425;51.616;6.680;2022-12-11T21:37:29;3.50;76.40
70068;DHT22;57425;51.616;6.680;2022-12-11T21:39:55;3.50;76.50
70068;DHT22;57425;51.616;6.680;2022-12-11T21:42:23;3.50;76.50
70068;DHT22;57425;51.616;6.680;2022-12-11T21:44:49;3.50;76.50
70068;DHT22;57425;51.616;6.680;2022-12-11T21:47:15;3.50;76.50
70068;DHT22;57425;51.616;6.680;2022-12-11T21:49:41;3.50;76.50
70068;DHT22;57425;51.616;6.680;2022-12-11T21:52:07;3.50;76.50
70068;DHT22;57425;51.616;6.680;2022-12-11T21:54:34;3.50;76.50
70068;DHT22;57425;51.616;6.680;2022-12-11T21:57:00;3.50;76.50
70068;DHT22;57425;51.616;6.680;2022-12-11T21:59:26;3.50;76.50
70068;DHT22;57425;51.616;6.680;2022-12-11T22:01:53;3.50;76.50
70068;DHT22;57425;51.616;6.680;2022-12-11T22:04:19;3.50;76.60
70068;DHT22;57425;51.616;6.680;2022-12-11T22:06:45;3.50;76.60
70068;DHT22;57425;51.616;6.680;2022-12-11T22:09:14;3.50;76.60
70068;DHT22;57425;51.616;6.680;2022-12-11T22:11:41;3.50;76.60
70068;DHT22;57425;51.616;6.680;2022-12-11T22:14:07;3.50;76.60
70068;DHT22;57425;51.616;6.680;2022-12-11T22:16:35;3.50;76.50
70068;DHT22;57425;51.616;6.680;2022-12-11T22:19:01;3.50;76.50
70068;DHT22;57425;51.616;6.680;2022-12-11T22:21:27;3.50;76.60
70068;DHT22;57425;51.616;6.680;2022-12-11T22:23:53;3.50;76.50
70068;DHT22;57425;51.616;6.680;2022-12-11T22:26:22;3.50;76.50
70068;DHT22;57425;51.616;6.680;2022-12-11T22:28:49;3.50;76.50
70068;DHT22;57425;51.616;6.680;2022-12-11T22:31:17;3.40;76.50
70068;DHT22;57425;51.616;6.680;2022-12-11T22:33:45;3.40;76.50
70068;DHT22;57425;51.616;6.680;2022-12-11T22:36:11;3.50;76.60
70068;DHT22;57425;51.616;6.680;2022-12-11T22:38:37;3.50;76.60
70068;DHT22;57425;51.616;6.680;2022-12-11T22:41:32;3.50;76.50
70068;DHT22;57425;51.616;6.680;2022-12-11T22:43:57;3.50;76.50
70068;DHT22;57425;51.616;6.680;2022-12-11T22:46:25;3.40;76.50
70068;DHT22;57425;51.616;6.680;2022-12-11T22:48:52;3.40;76.50
70068;DHT22;57425;51.616;6.680;2022-12-11T22:51:18;3.40;76.50
70068;DHT22;57425;51.616;6.680;2022-12-11T22:53:44;3.50;76.50
70068;DHT22;57425;51.616;6.680;2022-12-11T22:56:11;3.40;76.50
70068;DHT22;57425;51.616;6.680;2022-12-11T22:58:37;3.40;76.50
70068;DHT22;57425;51.616;6.680;2022-12-11T23:01:11;3.40;76.50
70068;DHT22;57425;51.616;6.680;2022-12-11T23:03:37;3.40;76.40
70068;DHT22;57425;51.616;6.680;2022-12-11T23:06:07;3.40;76.40
70068;DHT22;57425;51.616;6.680;2022-12-11T23:08:34;3.40;76.40
70068;DHT22;57425;51.616;6.680;2022-12-11T23:11:00;3.40;76.50
70068;DHT22;57425;51.616;6.680;2022-12-11T23:13:26;3.40;76.40
70068;DHT22;57425;51.616;6.680;2022-12-11T23:15:52;3.40;76.40
70068;DHT22;57425;51.616;6.680;2022-12-11T23:18:18;3.40;76.40
70068;DHT22;57425;51.616;6.680;2022-12-11T23:20:43;3.40;76.40
70068;DHT22;57425;51.616;6.680;2022-12-11T23:23:09;3.40;76.50
70068;DHT22;57425;51.616;6.680;2022-12-11T23:25:35;3.40;76.40
70068;DHT22;57425;51.616;6.680;2022-12-11T23:28:01;3.40;76.40
70068;DHT22;57425;51.616;6.680;2022-12-11T23:30:26;3.40;76.40
70068;DHT22;57425;51.616;6.680;2022-12-11T23:32:52;3.40;76.40
70068;DHT22;57425;51.616;6.680;2022-12-11T23:35:17;3.40;76.40
70068;DHT22;57425;51.616;6.680;2022-12-11T23:37:43;3.40;76.40
70068;DHT22;57425;51.616;6.680;2022-12-11T23:40:09;3.40;76.40
70068;DHT22;57425;51.616;6.680;2022-12-11T23:42:35;3.40;76.40
70068;DHT22;57425;51.616;6.680;2022-12-11T23:45:01;3.40;76.40
70068;DHT22;57425;51.616;6.680;2022-12-11T23:47:26;3.40;76.40
70068;DHT22;57425;51.616;6.680;2022-12-11T23:49:52;3.40;76.40
70068;DHT22;57425;51.616;6.680;2022-12-11T23:52:17;3.40;76.40
70068;DHT22;57425;51.616;6.680;2022-12-11T23:54:43;3.40;76.90
70068;DHT22;57425;51.616;6.680;2022-12-11T23:57:08;3.40;76.40
70068;DHT22;57425;51.616;6.680;2022-12-11T23:59:35;3.40;76.40
